sensor_id;sensor_type;location;lat;lon;timestamp;pressure;altitude;pressure_sealevel;temperature;humidity
596;BME280;19946;49.306;11.350;2023-05-16T00:02:21;95989.75;;;7.33;100.00
596;BME280;19946;49.306;11.350;2023-05-16T00:05:24;95993.59;;;7.27;100.00
596;BME280;19946;49.306;11.350;2023-05-16T00:08:27;96001.81;;;7.21;100.00
596;BME280;19946;49.306;11.350;2023-05-16T00:11:28;95977.97;;;7.08;100.00
596;BME280;19946;49.306;11.350;2023-05-16T00:14:30;95990.25;;;7.05;100.00
596;BME280;19946;49.306;11.350;2023-05-16T00:17:30;95974.47;;;6.98;100.00
596;BME280;19946;49.306;11.350;2023-05-16T00:20:34;95983.00;;;6.99;100.00
596;BME280;19946;49.306;11.350;2023-05-16T00:23:37;95996.94;;;6.96;100.00
596;BME280;19946;49.306;11.350;2023-05-16T00:27:03;95977.06;;;6.42;100.00
596;BME280;19946;49.306;11.350;2023-05-16T00:30:05;95989.00;;;6.54;100.00
596;BME280;19946;49.306;11.350;2023-05-16T00:33:08;95998.47;;;6.65;100.00
596;BME280;19946;49.306;11.350;2023-05-16T00:36:10;95996.59;;;6.56;100.00
596;BME280;19946;49.306;11.350;2023-05-16T00:39:39;95994.97;;;6.66;100.00
596;BME280;19946;49.306;11.350;2023-05-16T00:42:41;96000.00;;;6.68;100.00
596;BME280;19946;49.306;11.350;2023-05-16T00:45:44;95962.66;;;6.40;100.00
596;BME280;19946;49.306;11.350;2023-05-16T00:48:46;95995.88;;;6.54;100.00
596;BME280;19946;49.306;11.350;2023-05-16T00:51:48;95985.59;;;6.32;100.00
596;BME280;19946;49.306;11.350;2023-05-16T00:55:02;95966.53;;;6.23;100.00
596;BME280;19946;49.306;11.350;2023-05-16T00:58:08;95954.72;;;6.20;100.00
596;BME280;19946;49.306;11.350;2023-05-16T01:01:10;95968.47;;;6.08;100.00
596;BME280;19946;49.306;11.350;2023-05-16T01:04:12;95979.72;;;6.30;100.00
596;BME280;19946;49.306;11.350;2023-05-16T01:07:13;95975.84;;;6.13;100.00
596;BME280;19946;49.306;11.350;2023-05-16T01:10:15;95968.16;;;6.13;100.00
596;BME280;19946;49.306;11.350;2023-05-16T01:13:32;95961.59;;;6.09;100.00
596;BME280;19946;49.306;11.350;2023-05-16T01:16:45;95985.56;;;6.20;100.00
596;BME280;19946;49.306;11.350;2023-05-16T01:20:32;95983.47;;;6.14;100.00
596;BME280;19946;49.306;11.350;2023-05-16T01:23:58;95976.19;;;6.08;100.00
596;BME280;19946;49.306;11.350;2023-05-16T01:27:02;95961.50;;;5.86;100.00
596;BME280;19946;49.306;11.350;2023-05-16T01:30:18;95976.63;;;5.91;100.00
596;BME280;19946;49.306;11.350;2023-05-16T01:33:19;95971.06;;;5.84;100.00
596;BME280;19946;49.306;11.350;2023-05-16T01:36:43;95981.97;;;5.88;100.00
596;BME280;19946;49.306;11.350;2023-05-16T01:39:56;95962.44;;;5.85;100.00
596;BME280;19946;49.306;11.350;2023-05-16T01:43:06;95981.66;;;5.93;100.00
596;BME280;19946;49.306;11.350;2023-05-16T01:46:19;95981.75;;;5.91;100.00
596;BME280;19946;49.306;11.350;2023-05-16T01:49:26;95988.09;;;5.98;100.00
596;BME280;19946;49.306;11.350;2023-05-16T01:52:37;95967.38;;;5.89;100.00
596;BME280;19946;49.306;11.350;2023-05-16T01:55:46;95980.16;;;6.01;100.00
596;BME280;19946;49.306;11.350;2023-05-16T01:58:48;95982.16;;;6.09;100.00
596;BME280;19946;49.306;11.350;2023-05-16T02:01:53;95982.63;;;6.03;100.00
596;BME280;19946;49.306;11.350;2023-05-16T02:04:55;95970.09;;;5.98;100.00
596;BME280;19946;49.306;11.350;2023-05-16T02:07:56;95990.09;;;5.95;100.00
596;BME280;19946;49.306;11.350;2023-05-16T02:10:59;95982.84;;;5.76;100.00
596;BME280;19946;49.306;11.350;2023-05-16T02:14:03;95982.84;;;5.76;100.00
596;BME280;19946;49.306;11.350;2023-05-16T02:17:03;95950.09;;;5.56;100.00
596;BME280;19946;49.306;11.350;2023-05-16T02:20:04;95994.66;;;5.78;100.00
596;BME280;19946;49.306;11.350;2023-05-16T02:23:07;95989.59;;;5.90;100.00
596;BME280;19946;49.306;11.350;2023-05-16T02:26:07;95986.63;;;5.83;100.00
596;BME280;19946;49.306;11.350;2023-05-16T02:29:15;95994.09;;;5.86;100.00
596;BME280;19946;49.306;11.350;2023-05-16T02:32:20;95979.75;;;5.83;100.00
596;BME280;19946;49.306;11.350;2023-05-16T02:35:25;95992.66;;;5.95;100.00
596;BME280;19946;49.306;11.350;2023-05-16T02:38:25;95963.50;;;5.83;100.00
596;BME280;19946;49.306;11.350;2023-05-16T02:41:27;95983.78;;;6.10;100.00
596;BME280;19946;49.306;11.350;2023-05-16T02:44:28;95992.13;;;6.25;100.00
596;BME280;19946;49.306;11.350;2023-05-16T02:47:29;95966.50;;;6.12;100.00
596;BME280;19946;49.306;11.350;2023-05-16T02:50:29;95963.94;;;6.12;100.00
596;BME280;19946;49.306;11.350;2023-05-16T02:53:31;95998.94;;;6.37;100.00
596;BME280;19946;49.306;11.350;2023-05-16T02:56:34;95992.56;;;6.18;100.00
596;BME280;19946;49.306;11.350;2023-05-16T02:59:35;95995.25;;;6.28;100.00
596;BME280;19946;49.306;11.350;2023-05-16T03:02:38;95955.06;;;6.16;100.00
596;BME280;19946;49.306;11.350;2023-05-16T03:05:41;95982.28;;;6.18;100.00
596;BME280;19946;49.306;11.350;2023-05-16T03:08:43;95997.81;;;6.17;100.00
596;BME280;19946;49.306;11.350;2023-05-16T03:11:44;95979.56;;;6.09;100.00
596;BME280;19946;49.306;11.350;2023-05-16T03:14:44;95994.13;;;6.32;100.00
596;BME280;19946;49.306;11.350;2023-05-16T03:17:45;96002.31;;;6.37;100.00
596;BME280;19946;49.306;11.350;2023-05-16T03:20:46;95955.91;;;6.16;100.00
596;BME280;19946;49.306;11.350;2023-05-16T03:23:47;95977.03;;;6.31;100.00
596;BME280;19946;49.306;11.350;2023-05-16T03:26:49;95969.81;;;6.36;100.00
596;BME280;19946;49.306;11.350;2023-05-16T03:29:54;95932.84;;;6.04;100.00
596;BME280;19946;49.306;11.350;2023-05-16T03:32:55;95962.53;;;6.30;100.00
596;BME280;19946;49.306;11.350;2023-05-16T03:36:01;95985.00;;;6.50;100.00
596;BME280;19946;49.306;11.350;2023-05-16T03:39:03;95985.72;;;6.41;100.00
596;BME280;19946;49.306;11.350;2023-05-16T03:42:05;95955.88;;;6.39;100.00
596;BME280;19946;49.306;11.350;2023-05-16T03:45:08;95969.81;;;6.25;100.00
596;BME280;19946;49.306;11.350;2023-05-16T03:48:10;95998.13;;;6.58;100.00
596;BME280;19946;49.306;11.350;2023-05-16T03:51:11;95943.16;;;6.37;100.00
596;BME280;19946;49.306;11.350;2023-05-16T03:54:11;95944.09;;;6.47;100.00
596;BME280;19946;49.306;11.350;2023-05-16T03:57:13;95977.53;;;6.58;100.00
596;BME280;19946;49.306;11.350;2023-05-16T04:00:16;95998.34;;;6.78;100.00
596;BME280;19946;49.306;11.350;2023-05-16T04:03:17;95985.25;;;6.70;100.00
596;BME280;19946;49.306;11.350;2023-05-16T04:06:18;95957.91;;;6.46;100.00
596;BME280;19946;49.306;11.350;2023-05-16T04:09:19;95965.63;;;6.69;100.00
596;BME280;19946;49.306;11.350;2023-05-16T04:12:21;95969.13;;;6.68;100.00
596;BME280;19946;49.306;11.350;2023-05-16T04:15:24;95944.56;;;6.64;100.00
596;BME280;19946;49.306;11.350;2023-05-16T04:18:26;96005.31;;;7.20;100.00
596;BME280;19946;49.306;11.350;2023-05-16T04:21:29;95977.03;;;7.09;100.00
596;BME280;19946;49.306;11.350;2023-05-16T04:24:34;95998.59;;;7.40;100.00
596;BME280;19946;49.306;11.350;2023-05-16T04:27:35;95968.91;;;7.25;100.00
596;BME280;19946;49.306;11.350;2023-05-16T04:30:45;95963.06;;;7.23;100.00
596;BME280;19946;49.306;11.350;2023-05-16T04:33:46;95960.97;;;7.17;100.00
596;BME280;19946;49.306;11.350;2023-05-16T04:36:50;95952.09;;;7.10;100.00
596;BME280;19946;49.306;11.350;2023-05-16T04:39:55;95968.94;;;7.14;100.00
596;BME280;19946;49.306;11.350;2023-05-16T04:42:59;96001.53;;;7.36;100.00
596;BME280;19946;49.306;11.350;2023-05-16T04:46:02;96033.81;;;7.51;100.00
596;BME280;19946;49.306;11.350;2023-05-16T04:49:05;96027.38;;;7.56;100.00
596;BME280;19946;49.306;11.350;2023-05-16T04:52:06;96037.19;;;7.62;100.00
596;BME280;19946;49.306;11.350;2023-05-16T04:55:08;96019.03;;;7.64;100.00
596;BME280;19946;49.306;11.350;2023-05-16T04:58:09;95995.19;;;7.51;100.00
596;BME280;19946;49.306;11.350;2023-05-16T05:01:10;95980.38;;;7.64;100.00
596;BME280;19946;49.306;11.350;2023-05-16T05:04:11;95983.97;;;7.73;100.00
596;BME280;19946;49.306;11.350;2023-05-16T05:07:11;96036.00;;;7.98;100.00
596;BME280;19946;49.306;11.350;2023-05-16T05:10:13;95965.28;;;7.59;100.00
596;BME280;19946;49.306;11.350;2023-05-16T05:13:15;96041.94;;;8.31;100.00
596;BME280;19946;49.306;11.350;2023-05-16T05:16:17;95985.50;;;8.17;100.00
596;BME280;19946;49.306;11.350;2023-05-16T05:19:19;95997.22;;;8.21;100.00
596;BME280;19946;49.306;11.350;2023-05-16T05:22:22;95991.13;;;8.43;100.00
596;BME280;19946;49.306;11.350;2023-05-16T05:25:23;96006.50;;;8.74;100.00
596;BME280;19946;49.306;11.350;2023-05-16T05:28:25;96014.59;;;9.00;100.00
596;BME280;19946;49.306;11.350;2023-05-16T05:31:26;95948.22;;;8.82;100.00
596;BME280;19946;49.306;11.350;2023-05-16T05:34:27;95986.50;;;9.07;100.00
596;BME280;19946;49.306;11.350;2023-05-16T05:37:28;96005.34;;;9.38;100.00
596;BME280;19946;49.306;11.350;2023-05-16T05:40:29;95974.31;;;9.19;100.00
596;BME280;19946;49.306;11.350;2023-05-16T05:43:31;95981.28;;;9.57;100.00
596;BME280;19946;49.306;11.350;2023-05-16T05:46:32;96006.88;;;9.79;100.00
596;BME280;19946;49.306;11.350;2023-05-16T05:49:33;95957.44;;;9.24;100.00
596;BME280;19946;49.306;11.350;2023-05-16T05:52:34;96007.81;;;9.87;100.00
596;BME280;19946;49.306;11.350;2023-05-16T05:55:36;95985.38;;;9.69;100.00
596;BME280;19946;49.306;11.350;2023-05-16T05:58:37;96020.22;;;10.03;100.00
596;BME280;19946;49.306;11.350;2023-05-16T06:01:43;96026.88;;;9.96;100.00
596;BME280;19946;49.306;11.350;2023-05-16T06:04:45;96036.00;;;10.10;100.00
596;BME280;19946;49.306;11.350;2023-05-16T06:07:46;96040.69;;;10.26;100.00
596;BME280;19946;49.306;11.350;2023-05-16T06:10:48;95985.91;;;10.01;100.00
596;BME280;19946;49.306;11.350;2023-05-16T06:13:49;96002.25;;;10.31;100.00
596;BME280;19946;49.306;11.350;2023-05-16T06:16:50;96014.88;;;10.53;100.00
596;BME280;19946;49.306;11.350;2023-05-16T06:19:52;95970.22;;;10.41;100.00
596;BME280;19946;49.306;11.350;2023-05-16T06:22:53;95998.25;;;10.55;100.00
596;BME280;19946;49.306;11.350;2023-05-16T06:25:54;96023.56;;;10.61;100.00
596;BME280;19946;49.306;11.350;2023-05-16T06:28:55;96020.41;;;10.77;100.00
596;BME280;19946;49.306;11.350;2023-05-16T06:31:55;96002.41;;;10.76;100.00
596;BME280;19946;49.306;11.350;2023-05-16T06:34:58;96041.91;;;11.15;100.00
596;BME280;19946;49.306;11.350;2023-05-16T06:37:59;95992.63;;;10.97;100.00
596;BME280;19946;49.306;11.350;2023-05-16T06:41:04;95970.78;;;10.72;100.00
596;BME280;19946;49.306;11.350;2023-05-16T06:44:05;95968.66;;;10.95;100.00
596;BME280;19946;49.306;11.350;2023-05-16T06:47:06;96024.00;;;11.31;100.00
596;BME280;19946;49.306;11.350;2023-05-16T06:50:09;96033.31;;;11.69;100.00
596;BME280;19946;49.306;11.350;2023-05-16T06:53:14;96012.75;;;12.03;100.00
596;BME280;19946;49.306;11.350;2023-05-16T06:56:17;95969.75;;;11.83;100.00
596;BME280;19946;49.306;11.350;2023-05-16T06:59:18;95983.38;;;12.20;100.00
596;BME280;19946;49.306;11.350;2023-05-16T07:02:19;96040.16;;;12.67;100.00
596;BME280;19946;49.306;11.350;2023-05-16T07:05:20;96042.72;;;12.85;100.00
596;BME280;19946;49.306;11.350;2023-05-16T07:08:21;96001.72;;;12.70;100.00
596;BME280;19946;49.306;11.350;2023-05-16T07:11:22;96013.66;;;12.89;100.00
596;BME280;19946;49.306;11.350;2023-05-16T07:14:28;96032.59;;;13.41;100.00
596;BME280;19946;49.306;11.350;2023-05-16T07:17:29;96002.78;;;12.60;100.00
596;BME280;19946;49.306;11.350;2023-05-16T07:20:35;95993.06;;;12.62;100.00
596;BME280;19946;49.306;11.350;2023-05-16T07:23:36;95980.16;;;12.26;100.00
596;BME280;19946;49.306;11.350;2023-05-16T07:26:37;96024.16;;;12.10;100.00
596;BME280;19946;49.306;11.350;2023-05-16T07:29:38;96029.13;;;12.03;100.00
596;BME280;19946;49.306;11.350;2023-05-16T07:32:39;96017.34;;;11.91;100.00
596;BME280;19946;49.306;11.350;2023-05-16T07:35:40;95977.72;;;11.71;100.00
596;BME280;19946;49.306;11.350;2023-05-16T07:38:41;96040.16;;;12.23;100.00
596;BME280;19946;49.306;11.350;2023-05-16T07:41:42;96051.75;;;12.11;100.00
596;BME280;19946;49.306;11.350;2023-05-16T07:44:43;96007.81;;;11.64;100.00
596;BME280;19946;49.306;11.350;2023-05-16T07:47:45;96042.41;;;12.18;100.00
596;BME280;19946;49.306;11.350;2023-05-16T07:50:46;95991.53;;;11.90;100.00
596;BME280;19946;49.306;11.350;2023-05-16T07:53:47;96031.16;;;12.35;100.00
596;BME280;19946;49.306;11.350;2023-05-16T07:56:48;96036.44;;;12.43;100.00
596;BME280;19946;49.306;11.350;2023-05-16T07:59:49;96057.31;;;12.60;100.00
596;BME280;19946;49.306;11.350;2023-05-16T08:02:51;96012.31;;;12.33;100.00
596;BME280;19946;49.306;11.350;2023-05-16T08:05:54;96017.09;;;12.38;100.00
596;BME280;19946;49.306;11.350;2023-05-16T08:08:57;96068.09;;;12.91;100.00
596;BME280;19946;49.306;11.350;2023-05-16T08:12:03;96036.75;;;12.40;100.00
596;BME280;19946;49.306;11.350;2023-05-16T08:15:04;96031.00;;;12.11;100.00
596;BME280;19946;49.306;11.350;2023-05-16T08:18:12;96034.50;;;12.46;100.00
596;BME280;19946;49.306;11.350;2023-05-16T08:21:13;96044.00;;;12.37;100.00
596;BME280;19946;49.306;11.350;2023-05-16T08:24:17;96023.56;;;12.16;100.00
596;BME280;19946;49.306;11.350;2023-05-16T08:27:18;96038.47;;;12.58;100.00
596;BME280;19946;49.306;11.350;2023-05-16T08:30:20;96069.69;;;13.43;100.00
596;BME280;19946;49.306;11.350;2023-05-16T08:33:21;96051.44;;;13.35;100.00
596;BME280;19946;49.306;11.350;2023-05-16T08:36:22;95998.59;;;13.27;100.00
596;BME280;19946;49.306;11.350;2023-05-16T08:39:24;96062.44;;;13.63;100.00
596;BME280;19946;49.306;11.350;2023-05-16T08:42:25;96014.91;;;13.11;100.00
596;BME280;19946;49.306;11.350;2023-05-16T08:45:27;96056.50;;;13.37;100.00
596;BME280;19946;49.306;11.350;2023-05-16T08:48:30;96056.44;;;13.63;100.00
596;BME280;19946;49.306;11.350;2023-05-16T08:51:36;96050.25;;;13.64;100.00
596;BME280;19946;49.306;11.350;2023-05-16T08:54:39;95990.53;;;13.12;100.00
596;BME280;19946;49.306;11.350;2023-05-16T08:57:40;96066.59;;;14.06;100.00
596;BME280;19946;49.306;11.350;2023-05-16T09:00:41;96021.31;;;13.75;100.00
596;BME280;19946;49.306;11.350;2023-05-16T09:03:42;96071.03;;;14.22;100.00
596;BME280;19946;49.306;11.350;2023-05-16T09:06:43;96051.78;;;14.07;100.00
596;BME280;19946;49.306;11.350;2023-05-16T09:09:44;96067.75;;;14.20;100.00
596;BME280;19946;49.306;11.350;2023-05-16T09:12:44;96050.97;;;13.90;100.00
596;BME280;19946;49.306;11.350;2023-05-16T09:15:45;96061.72;;;14.11;100.00
596;BME280;19946;49.306;11.350;2023-05-16T09:19:06;96051.16;;;14.13;100.00
596;BME280;19946;49.306;11.350;2023-05-16T09:22:10;96038.75;;;13.82;100.00
596;BME280;19946;49.306;11.350;2023-05-16T09:25:15;96024.88;;;13.58;100.00
596;BME280;19946;49.306;11.350;2023-05-16T09:28:16;96015.78;;;13.62;100.00
596;BME280;19946;49.306;11.350;2023-05-16T09:31:22;95996.97;;;13.84;100.00
596;BME280;19946;49.306;11.350;2023-05-16T09:34:25;96029.84;;;14.09;100.00
596;BME280;19946;49.306;11.350;2023-05-16T09:37:26;96066.84;;;14.70;100.00
596;BME280;19946;49.306;11.350;2023-05-16T09:40:27;96025.47;;;14.50;100.00
596;BME280;19946;49.306;11.350;2023-05-16T09:43:28;96047.59;;;14.79;100.00
596;BME280;19946;49.306;11.350;2023-05-16T09:46:29;96018.28;;;14.60;100.00
596;BME280;19946;49.306;11.350;2023-05-16T09:49:29;95983.47;;;14.53;100.00
596;BME280;19946;49.306;11.350;2023-05-16T09:52:30;96043.63;;;15.07;100.00
596;BME280;19946;49.306;11.350;2023-05-16T09:55:32;96013.03;;;14.85;100.00
596;BME280;19946;49.306;11.350;2023-05-16T09:58:37;96039.47;;;14.49;100.00
596;BME280;19946;49.306;11.350;2023-05-16T10:01:38;96050.16;;;15.03;100.00
596;BME280;19946;49.306;11.350;2023-05-16T10:04:39;96004.69;;;14.97;100.00
596;BME280;19946;49.306;11.350;2023-05-16T10:07:41;96012.03;;;15.02;100.00
596;BME280;19946;49.306;11.350;2023-05-16T10:10:43;96004.53;;;15.38;100.00
596;BME280;19946;49.306;11.350;2023-05-16T10:13:46;96006.22;;;15.31;100.00
596;BME280;19946;49.306;11.350;2023-05-16T10:16:53;95985.06;;;14.63;100.00
596;BME280;19946;49.306;11.350;2023-05-16T10:19:57;96011.63;;;14.25;100.00
596;BME280;19946;49.306;11.350;2023-05-16T10:23:01;95987.53;;;13.83;100.00
596;BME280;19946;49.306;11.350;2023-05-16T10:26:03;96048.06;;;14.01;100.00
596;BME280;19946;49.306;11.350;2023-05-16T10:29:05;96053.25;;;13.93;100.00
596;BME280;19946;49.306;11.350;2023-05-16T10:32:07;95974.31;;;13.76;100.00
596;BME280;19946;49.306;11.350;2023-05-16T10:35:08;95979.53;;;13.84;100.00
596;BME280;19946;49.306;11.350;2023-05-16T10:38:10;96010.13;;;14.07;100.00
596;BME280;19946;49.306;11.350;2023-05-16T10:41:12;96013.72;;;13.81;100.00
596;BME280;19946;49.306;11.350;2023-05-16T10:44:14;96001.34;;;13.92;100.00
596;BME280;19946;49.306;11.350;2023-05-16T10:47:18;96045.78;;;14.31;100.00
596;BME280;19946;49.306;11.350;2023-05-16T10:50:38;96034.91;;;14.51;100.00
596;BME280;19946;49.306;11.350;2023-05-16T10:53:40;96025.16;;;14.53;100.00
596;BME280;19946;49.306;11.350;2023-05-16T10:56:40;96002.69;;;14.44;100.00
596;BME280;19946;49.306;11.350;2023-05-16T10:59:43;96041.38;;;14.88;100.00
596;BME280;19946;49.306;11.350;2023-05-16T11:02:45;96013.09;;;14.69;100.00
596;BME280;19946;49.306;11.350;2023-05-16T11:05:50;96039.28;;;15.39;100.00
596;BME280;19946;49.306;11.350;2023-05-16T11:09:22;96039.88;;;15.10;100.00
596;BME280;19946;49.306;11.350;2023-05-16T11:12:23;96037.59;;;15.07;100.00
596;BME280;19946;49.306;11.350;2023-05-16T11:15:26;96036.03;;;14.73;100.00
596;BME280;19946;49.306;11.350;2023-05-16T11:18:31;96038.81;;;14.55;100.00
596;BME280;19946;49.306;11.350;2023-05-16T11:25:36;96033.25;;;14.91;100.00
596;BME280;19946;49.306;11.350;2023-05-16T11:28:40;96044.81;;;14.88;100.00
596;BME280;19946;49.306;11.350;2023-05-16T11:31:40;96020.88;;;14.77;100.00
596;BME280;19946;49.306;11.350;2023-05-16T11:34:43;96023.41;;;15.48;100.00
596;BME280;19946;49.306;11.350;2023-05-16T11:37:46;96030.03;;;15.28;100.00
596;BME280;19946;49.306;11.350;2023-05-16T11:40:48;96027.66;;;15.10;100.00
596;BME280;19946;49.306;11.350;2023-05-16T11:43:48;96041.81;;;15.08;100.00
596;BME280;19946;49.306;11.350;2023-05-16T11:46:49;96041.09;;;14.42;100.00
596;BME280;19946;49.306;11.350;2023-05-16T11:49:56;96063.38;;;14.29;100.00
596;BME280;19946;49.306;11.350;2023-05-16T11:52:57;96035.69;;;14.11;100.00
596;BME280;19946;49.306;11.350;2023-05-16T11:55:59;96025.28;;;14.03;100.00
596;BME280;19946;49.306;11.350;2023-05-16T11:59:01;96039.47;;;14.57;100.00
596;BME280;19946;49.306;11.350;2023-05-16T12:02:05;96016.66;;;14.35;100.00
596;BME280;19946;49.306;11.350;2023-05-16T12:05:07;95997.31;;;14.38;100.00
596;BME280;19946;49.306;11.350;2023-05-16T12:08:09;96054.22;;;15.06;100.00
596;BME280;19946;49.306;11.350;2023-05-16T12:11:10;95984.25;;;14.62;100.00
596;BME280;19946;49.306;11.350;2023-05-16T12:14:12;95988.75;;;14.84;100.00
596;BME280;19946;49.306;11.350;2023-05-16T12:17:15;96001.97;;;14.91;100.00
596;BME280;19946;49.306;11.350;2023-05-16T12:20:17;96017.50;;;14.52;100.00
596;BME280;19946;49.306;11.350;2023-05-16T12:23:18;96028.41;;;14.39;100.00
596;BME280;19946;49.306;11.350;2023-05-16T12:26:26;96001.88;;;14.44;100.00
596;BME280;19946;49.306;11.350;2023-05-16T12:29:31;96009.03;;;14.58;100.00
596;BME280;19946;49.306;11.350;2023-05-16T12:32:37;96012.28;;;14.68;100.00
596;BME280;19946;49.306;11.350;2023-05-16T12:35:44;96027.06;;;14.92;96.11
596;BME280;19946;49.306;11.350;2023-05-16T12:38:46;96028.84;;;14.83;100.00
596;BME280;19946;49.306;11.350;2023-05-16T12:41:55;96051.19;;;14.53;93.87
596;BME280;19946;49.306;11.350;2023-05-16T12:45:02;96058.19;;;14.61;100.00
596;BME280;19946;49.306;11.350;2023-05-16T12:48:04;96018.94;;;14.06;100.00
596;BME280;19946;49.306;11.350;2023-05-16T12:51:18;96000.69;;;13.98;100.00
596;BME280;19946;49.306;11.350;2023-05-16T12:54:23;96006.34;;;13.69;100.00
596;BME280;19946;49.306;11.350;2023-05-16T12:57:25;96029.31;;;13.89;100.00
596;BME280;19946;49.306;11.350;2023-05-16T13:00:29;96081.13;;;14.33;100.00
596;BME280;19946;49.306;11.350;2023-05-16T13:03:32;96019.41;;;14.01;100.00
596;BME280;19946;49.306;11.350;2023-05-16T13:06:39;96041.72;;;14.04;100.00
596;BME280;19946;49.306;11.350;2023-05-16T13:09:42;96015.66;;;13.96;100.00
596;BME280;19946;49.306;11.350;2023-05-16T13:12:43;96036.34;;;14.13;100.00
596;BME280;19946;49.306;11.350;2023-05-16T13:15:55;96090.22;;;14.21;100.00
596;BME280;19946;49.306;11.350;2023-05-16T13:18:57;96049.31;;;13.81;100.00
596;BME280;19946;49.306;11.350;2023-05-16T13:22:01;96064.63;;;13.84;100.00
596;BME280;19946;49.306;11.350;2023-05-16T13:25:05;96038.72;;;13.66;100.00
596;BME280;19946;49.306;11.350;2023-05-16T13:28:11;96075.50;;;13.87;100.00
596;BME280;19946;49.306;11.350;2023-05-16T13:31:13;96074.66;;;13.71;100.00
596;BME280;19946;49.306;11.350;2023-05-16T13:34:16;96055.25;;;13.49;100.00
596;BME280;19946;49.306;11.350;2023-05-16T13:37:18;96106.06;;;13.77;100.00
596;BME280;19946;49.306;11.350;2023-05-16T13:40:19;96048.84;;;13.35;100.00
596;BME280;19946;49.306;11.350;2023-05-16T13:43:21;96103.75;;;13.66;100.00
596;BME280;19946;49.306;11.350;2023-05-16T13:46:22;96066.59;;;13.40;100.00
596;BME280;19946;49.306;11.350;2023-05-16T13:49:27;96045.13;;;13.38;100.00
596;BME280;19946;49.306;11.350;2023-05-16T13:52:28;96038.31;;;13.45;100.00
596;BME280;19946;49.306;11.350;2023-05-16T13:55:29;96108.91;;;14.00;100.00
596;BME280;19946;49.306;11.350;2023-05-16T13:58:30;96046.66;;;13.57;100.00
596;BME280;19946;49.306;11.350;2023-05-16T14:01:33;96065.69;;;13.57;100.00
596;BME280;19946;49.306;11.350;2023-05-16T14:04:34;96060.19;;;13.68;100.00
596;BME280;19946;49.306;11.350;2023-05-16T14:07:34;96088.06;;;13.92;100.00
596;BME280;19946;49.306;11.350;2023-05-16T14:10:35;96065.22;;;13.62;100.00
596;BME280;19946;49.306;11.350;2023-05-16T14:13:40;96118.06;;;13.62;100.00
596;BME280;19946;49.306;11.350;2023-05-16T14:16:40;96073.19;;;13.26;100.00
596;BME280;19946;49.306;11.350;2023-05-16T14:19:45;96074.47;;;13.22;100.00
596;BME280;19946;49.306;11.350;2023-05-16T14:22:45;96113.69;;;13.29;100.00
596;BME280;19946;49.306;11.350;2023-05-16T14:25:46;96057.72;;;12.99;100.00
596;BME280;19946;49.306;11.350;2023-05-16T14:28:52;96066.09;;;12.85;100.00
596;BME280;19946;49.306;11.350;2023-05-16T14:31:53;96132.69;;;13.11;100.00
596;BME280;19946;49.306;11.350;2023-05-16T14:34:55;96092.50;;;12.72;100.00
596;BME280;19946;49.306;11.350;2023-05-16T14:37:57;96102.25;;;12.78;100.00
596;BME280;19946;49.306;11.350;2023-05-16T14:40:58;96136.31;;;12.93;100.00
596;BME280;19946;49.306;11.350;2023-05-16T14:43:59;96140.22;;;12.71;100.00
596;BME280;19946;49.306;11.350;2023-05-16T14:46:59;96151.19;;;12.83;100.00
596;BME280;19946;49.306;11.350;2023-05-16T14:50:00;96099.41;;;12.46;100.00
596;BME280;19946;49.306;11.350;2023-05-16T14:53:01;96128.19;;;12.34;100.00
596;BME280;19946;49.306;11.350;2023-05-16T14:56:03;96121.31;;;12.25;100.00
596;BME280;19946;49.306;11.350;2023-05-16T14:59:04;96088.13;;;12.01;100.00
596;BME280;19946;49.306;11.350;2023-05-16T15:02:04;96150.25;;;12.30;100.00
596;BME280;19946;49.306;11.350;2023-05-16T15:05:07;96164.94;;;12.39;100.00
596;BME280;19946;49.306;11.350;2023-05-16T15:08:07;96182.38;;;12.47;100.00
596;BME280;19946;49.306;11.350;2023-05-16T15:11:09;96179.69;;;12.21;100.00
596;BME280;19946;49.306;11.350;2023-05-16T15:14:14;96181.53;;;12.11;100.00
596;BME280;19946;49.306;11.350;2023-05-16T15:17:15;96167.88;;;12.09;100.00
596;BME280;19946;49.306;11.350;2023-05-16T15:20:15;96180.91;;;11.99;100.00
596;BME280;19946;49.306;11.350;2023-05-16T15:23:16;96173.28;;;11.98;100.00
596;BME280;19946;49.306;11.350;2023-05-16T15:26:17;96168.56;;;11.84;100.00
596;BME280;19946;49.306;11.350;2023-05-16T15:29:19;96166.19;;;11.90;100.00
596;BME280;19946;49.306;11.350;2023-05-16T15:32:20;96198.00;;;11.92;100.00
596;BME280;19946;49.306;11.350;2023-05-16T15:35:25;96181.34;;;11.95;100.00
596;BME280;19946;49.306;11.350;2023-05-16T15:38:27;96163.56;;;11.63;100.00
596;BME280;19946;49.306;11.350;2023-05-16T15:41:29;96209.25;;;11.83;100.00
596;BME280;19946;49.306;11.350;2023-05-16T15:44:31;96181.25;;;11.40;100.00
596;BME280;19946;49.306;11.350;2023-05-16T15:47:34;96187.91;;;11.52;100.00
596;BME280;19946;49.306;11.350;2023-05-16T15:50:35;96164.19;;;11.38;100.00
596;BME280;19946;49.306;11.350;2023-05-16T15:53:35;96188.66;;;11.25;100.00
596;BME280;19946;49.306;11.350;2023-05-16T15:56:38;96227.09;;;11.40;100.00
596;BME280;19946;49.306;11.350;2023-05-16T15:59:40;96206.69;;;11.17;100.00
596;BME280;19946;49.306;11.350;2023-05-16T16:02:41;96225.59;;;11.37;100.00
596;BME280;19946;49.306;11.350;2023-05-16T16:05:48;96212.66;;;11.27;100.00
596;BME280;19946;49.306;11.350;2023-05-16T16:08:48;96230.94;;;11.36;100.00
596;BME280;19946;49.306;11.350;2023-05-16T16:11:52;96156.03;;;10.76;100.00
596;BME280;19946;49.306;11.350;2023-05-16T16:14:55;96228.22;;;11.27;100.00
596;BME280;19946;49.306;11.350;2023-05-16T16:17:56;96240.66;;;11.05;100.00
596;BME280;19946;49.306;11.350;2023-05-16T16:20:57;96221.31;;;10.89;100.00